Time;durP1;ratioP1;P1;durP2;ratioP2;P2;SDS_P1;SDS_P2;PMS_P1;PMS_P2;Temp;Humidity;BMP_temperature;BMP_pressure;BME280_temperature;BME280_humidity;BME280_pressure;Samples;Min_cycle;Max_cycle;Signal;HPM_P1;HPM_P2
2023/04/14 00:01:25;;;;;;;1999.90;999.90;;;7.80;99.90;;;;;;4994326;28;20212;-71
2023/04/14 00:03:51;;;;;;;1999.90;999.90;;;7.80;99.90;;;;;;4994306;28;20461;-71
2023/04/14 00:06:17;;;;;;;1999.90;999.90;;;7.70;99.90;;;;;;4994120;28;20211;-71
2023/04/14 00:08:42;;;;;;;1999.90;999.90;;;7.70;99.90;;;;;;4993943;28;20449;-71
2023/04/14 00:11:08;;;;;;;1999.90;999.90;;;7.80;99.90;;;;;;4993548;28;20539;-71
2023/04/14 00:13:34;;;;;;;1999.90;999.90;;;7.70;99.90;;;;;;4993797;28;20192;-71
2023/04/14 00:15:59;;;;;;;1999.90;999.90;;;7.70;99.90;;;;;;4993823;28;20223;-71
2023/04/14 00:18:25;;;;;;;1999.90;999.90;;;7.70;99.90;;;;;;4992662;28;20182;-71
2023/04/14 00:20:53;;;;;;;1999.90;999.90;;;7.90;99.90;;;;;;4993736;28;20168;-71
2023/04/14 00:23:19;;;;;;;1999.90;999.90;;;7.90;99.90;;;;;;4993920;28;20215;-71
2023/04/14 00:25:45;;;;;;;1999.90;999.90;;;7.90;99.90;;;;;;4993873;28;20847;-71
2023/04/14 00:28:10;;;;;;;1999.90;999.90;;;7.80;99.90;;;;;;4994063;28;20499;-71
2023/04/14 00:30:36;;;;;;;1999.90;999.90;;;7.80;99.90;;;;;;4993843;28;20406;-71
2023/04/14 00:33:01;;;;;;;1999.90;999.90;;;7.80;99.90;;;;;;4993553;28;20289;-71
2023/04/14 00:35:27;;;;;;;1999.90;999.90;;;7.80;99.90;;;;;;4994060;28;20168;-71
2023/04/14 00:37:55;;;;;;;1999.90;999.90;;;7.80;99.90;;;;;;4993715;28;20204;-71
2023/04/14 00:40:21;;;;;;;1999.90;999.90;;;7.90;99.90;;;;;;4993485;28;20223;-71
2023/04/14 00:42:46;;;;;;;1999.90;999.90;;;7.90;99.90;;;;;;4993300;28;20514;-71
2023/04/14 00:45:13;;;;;;;1999.90;999.90;;;7.80;99.90;;;;;;4993564;28;20171;-71
2023/04/14 00:47:41;;;;;;;1999.90;999.90;;;7.80;99.90;;;;;;4993582;28;20160;-71
2023/04/14 00:50:09;;;;;;;1999.90;999.90;;;7.70;99.90;;;;;;4993488;28;20419;-71
2023/04/14 00:52:36;;;;;;;1999.90;999.90;;;7.20;99.90;;;;;;4992854;28;20582;-72
2023/04/14 00:55:05;;;;;;;1999.90;999.90;;;7.40;99.90;;;;;;4993175;28;20506;-71
2023/04/14 00:57:31;;;;;;;1999.90;999.90;;;7.20;99.90;;;;;;4993024;28;20404;-71
2023/04/14 01:00:00;;;;;;;1999.90;999.90;;;7.00;99.90;;;;;;4993101;28;20998;-72
2023/04/14 01:02:26;;;;;;;1999.90;999.90;;;7.00;99.90;;;;;;4992657;28;20632;-71
2023/04/14 01:04:52;;;;;;;1999.90;999.90;;;6.90;99.90;;;;;;4992960;28;20495;-71
2023/04/14 01:07:19;;;;;;;1999.90;999.90;;;6.80;99.90;;;;;;4992816;28;20169;-71
2023/04/14 01:09:45;;;;;;;1999.90;999.90;;;6.70;99.90;;;;;;4992887;28;20185;-71
2023/04/14 01:12:22;;;;;;;1999.90;999.90;;;6.70;99.90;;;;;;4992636;28;20492;-70
2023/04/14 01:15:12;;;;;;;1999.90;999.90;;;6.70;99.90;;;;;;4992966;28;20545;-71
2023/04/14 01:17:44;;;;;;;1999.90;999.90;;;6.60;99.90;;;;;;4992733;28;20405;-71
2023/04/14 01:20:25;;;;;;;1999.90;999.90;;;6.50;99.90;;;;;;4992729;28;20497;-71
2023/04/14 01:23:00;;;;;;;1999.90;999.90;;;6.50;99.90;;;;;;4992313;28;20473;-71
2023/04/14 01:26:03;;;;;;;1999.90;999.90;;;6.40;99.90;;;;;;4992775;28;20402;-71
2023/04/14 01:29:00;;;;;;;1999.90;999.90;;;6.30;99.90;;;;;;4992533;28;20738;-72
2023/04/14 01:31:32;;;;;;;1999.90;999.90;;;6.30;99.90;;;;;;4992482;28;20398;-71
2023/04/14 01:34:16;;;;;;;1999.90;999.90;;;6.20;99.90;;;;;;4992503;28;20428;-71
2023/04/14 01:36:51;;;;;;;1999.90;999.90;;;6.30;99.90;;;;;;4992566;28;20488;-71
2023/04/14 01:39:21;;;;;;;1999.90;999.90;;;6.20;99.90;;;;;;4992422;28;20491;-72
2023/04/14 01:41:53;;;;;;;1999.90;999.90;;;6.10;99.90;;;;;;4992264;28;20405;-71
2023/04/14 01:44:21;;;;;;;1999.90;999.90;;;6.10;99.90;;;;;;4992467;28;20493;-72
2023/04/14 01:46:49;;;;;;;1999.90;999.90;;;6.00;99.90;;;;;;4992451;28;20525;-70
2023/04/14 01:49:18;;;;;;;1999.90;999.90;;;6.00;99.90;;;;;;4992537;28;20543;-71
2023/04/14 01:51:44;;;;;;;1999.90;999.90;;;5.90;99.90;;;;;;4992312;28;20413;-72
2023/04/14 01:54:13;;;;;;;1999.90;999.90;;;5.90;99.90;;;;;;4992379;28;20433;-71
2023/04/14 01:56:40;;;;;;;1999.90;999.90;;;5.80;99.90;;;;;;4992422;28;20454;-70
2023/04/14 01:59:07;;;;;;;1999.90;999.90;;;5.80;99.90;;;;;;4992330;28;20449;-71
2023/04/14 02:01:33;;;;;;;1999.90;999.90;;;5.70;99.90;;;;;;4991917;28;20416;-71
2023/04/14 02:04:01;;;;;;;1999.90;999.90;;;5.70;99.90;;;;;;4992276;28;20567;-71
2023/04/14 02:06:30;;;;;;;1999.90;999.90;;;5.60;99.90;;;;;;4992306;28;20412;-71
2023/04/14 02:08:59;;;;;;;1999.90;999.90;;;5.60;99.90;;;;;;4992390;28;20423;-72
2023/04/14 02:11:28;;;;;;;1999.90;999.90;;;5.50;99.90;;;;;;4992069;28;20833;-71
2023/04/14 02:13:54;;;;;;;1999.90;999.90;;;5.40;99.90;;;;;;4992487;28;20436;-71
2023/04/14 02:16:22;;;;;;;1999.90;999.90;;;5.40;99.90;;;;;;4992656;28;20459;-71
2023/04/14 02:18:49;;;;;;;1999.90;999.90;;;5.30;99.90;;;;;;4992530;28;20471;-71
2023/04/14 02:21:16;;;;;;;1999.90;999.90;;;5.30;99.90;;;;;;4991977;28;20409;-71
2023/04/14 02:23:41;;;;;;;1999.90;999.90;;;5.20;99.90;;;;;;4992000;28;20449;-70
2023/04/14 02:26:15;;;;;;;1999.90;999.90;;;5.20;99.90;;;;;;4992195;28;20837;-70
2023/04/14 02:28:48;;;;;;;1999.90;999.90;;;5.10;99.90;;;;;;4992110;28;20170;-72
2023/04/14 02:31:20;;;;;;;1999.90;999.90;;;5.00;99.90;;;;;;4991782;28;20441;-71
2023/04/14 02:33:48;;;;;;;1999.90;999.90;;;5.00;99.90;;;;;;4992181;28;20515;-70
2023/04/14 02:36:19;;;;;;;1999.90;999.90;;;5.00;99.90;;;;;;4992084;28;20455;-70
2023/04/14 02:38:52;;;;;;;1999.90;999.90;;;5.10;99.90;;;;;;4992096;28;20845;-72
2023/04/14 02:41:29;;;;;;;1999.90;999.90;;;5.10;99.90;;;;;;4993009;28;20412;-71
2023/04/14 02:44:00;;;;;;;1999.90;999.90;;;5.10;99.90;;;;;;4995509;28;20494;-71
2023/04/14 02:46:30;;;;;;;1999.90;999.90;;;5.10;99.90;;;;;;4995464;28;20401;-70
2023/04/14 02:48:58;;;;;;;1999.90;999.90;;;5.10;99.90;;;;;;4995429;28;20463;-70
2023/04/14 02:51:26;;;;;;;1999.90;999.90;;;5.10;99.90;;;;;;4995100;28;20445;-71
2023/04/14 02:53:52;;;;;;;1999.90;999.90;;;5.10;99.90;;;;;;4995287;28;20523;-70
2023/04/14 02:56:18;;;;;;;1999.90;999.90;;;5.10;99.90;;;;;;4995302;28;20524;-70
2023/04/14 02:58:44;;;;;;;1999.90;999.90;;;5.10;99.90;;;;;;4995270;28;20824;-70
2023/04/14 03:01:10;;;;;;;1999.90;999.90;;;5.20;99.90;;;;;;4994885;28;20487;-70
2023/04/14 03:03:37;;;;;;;1999.90;999.90;;;5.20;99.90;;;;;;4995089;28;20911;-72
2023/04/14 03:06:05;;;;;;;1999.90;999.90;;;5.20;99.90;;;;;;4995077;28;20397;-71
2023/04/14 03:08:32;;;;;;;1999.90;999.90;;;5.20;99.90;;;;;;4995071;28;20397;-70
2023/04/14 03:10:59;;;;;;;1999.90;999.90;;;5.20;99.90;;;;;;4994781;28;20463;-71
2023/04/14 03:13:27;;;;;;;1999.90;999.90;;;5.20;99.90;;;;;;4994946;28;20435;-71
2023/04/14 03:15:53;;;;;;;1999.90;999.90;;;5.20;99.90;;;;;;4994984;28;20405;-71
2023/04/14 03:18:20;;;;;;;1999.90;999.90;;;5.20;99.90;;;;;;4994908;28;20902;-70
2023/04/14 03:20:49;;;;;;;1999.90;999.90;;;5.20;99.90;;;;;;4995151;28;20459;-71
2023/04/14 03:23:17;;;;;;;1999.90;999.90;;;5.20;99.90;;;;;;4994454;28;20451;-70
2023/04/14 03:25:44;;;;;;;1999.90;999.90;;;5.10;99.90;;;;;;4994939;28;20405;-71
2023/04/14 03:28:14;;;;;;;1999.90;999.90;;;5.00;99.90;;;;;;4994869;28;20412;-71
2023/04/14 03:30:45;;;;;;;1999.90;999.90;;;5.00;99.90;;;;;;4994653;28;20413;-71
2023/04/14 03:33:13;;;;;;;1999.90;999.90;;;5.00;99.90;;;;;;4994276;28;20417;-70
2023/04/14 03:35:40;;;;;;;1999.90;999.90;;;5.00;99.90;;;;;;4994781;28;20834;-70
2023/04/14 03:38:09;;;;;;;1999.90;999.90;;;5.00;99.90;;;;;;4994784;28;20401;-71
2023/04/14 03:40:39;;;;;;;1999.90;999.90;;;5.00;99.90;;;;;;4994654;28;21020;-69
2023/04/14 03:43:08;;;;;;;1999.90;999.90;;;4.90;99.90;;;;;;4994552;28;20989;-72
2023/04/14 03:45:37;;;;;;;1999.90;999.90;;;4.80;99.90;;;;;;4994714;28;20831;-71
2023/04/14 03:48:05;;;;;;;1999.90;999.90;;;4.70;99.90;;;;;;4994972;28;20432;-71
2023/04/14 03:50:35;;;;;;;1999.90;999.90;;;4.70;99.90;;;;;;4995010;28;21192;-72
2023/04/14 03:53:03;;;;;;;1999.90;999.90;;;4.60;99.90;;;;;;4994142;28;20448;-71
2023/04/14 03:55:31;;;;;;;1999.90;999.90;;;4.50;99.90;;;;;;4994564;28;20893;-72
2023/04/14 03:58:00;;;;;;;1999.90;999.90;;;4.50;99.90;;;;;;4994400;28;20413;-72
2023/04/14 04:00:26;;;;;;;1999.90;999.90;;;4.60;99.90;;;;;;4994333;28;21117;-72
2023/04/14 04:02:53;;;;;;;1999.90;999.90;;;4.60;99.90;;;;;;4993932;28;20471;-71
2023/04/14 04:05:20;;;;;;;1999.90;999.90;;;4.50;99.90;;;;;;4994365;28;20412;-72
2023/04/14 04:07:46;;;;;;;1999.90;999.90;;;4.50;99.90;;;;;;4994380;28;20480;-72
2023/04/14 04:10:13;;;;;;;1999.90;999.90;;;4.50;99.90;;;;;;4994271;28;20440;-72
2023/04/14 04:12:46;;;;;;;1999.90;999.90;;;4.40;99.90;;;;;;4993871;28;20443;-72
2023/04/14 04:15:11;;;;;;;1999.90;999.90;;;4.30;99.90;;;;;;4994504;28;20408;-72
2023/04/14 04:17:37;;;;;;;1999.90;999.90;;;4.30;99.90;;;;;;4994224;28;20907;-71
2023/04/14 04:20:10;;;;;;;1999.90;999.90;;;4.20;99.90;;;;;;4994171;28;20209;-72
2023/04/14 04:22:39;;;;;;;1999.90;999.90;;;4.10;99.90;;;;;;4993860;28;20452;-71
2023/04/14 04:25:06;;;;;;;1999.90;999.90;;;4.10;99.90;;;;;;4994075;28;20413;-72
2023/04/14 04:27:32;;;;;;;1999.90;999.90;;;4.10;99.90;;;;;;4994048;28;20393;-72
2023/04/14 04:29:58;;;;;;;1999.90;999.90;;;4.10;99.90;;;;;;4993738;28;20409;-71
2023/04/14 04:32:24;;;;;;;1999.90;999.90;;;4.10;99.90;;;;;;4993128;28;20419;-71
2023/04/14 04:34:51;;;;;;;1999.90;999.90;;;4.00;99.90;;;;;;4993475;28;20413;-72
2023/04/14 04:37:18;;;;;;;1999.90;999.90;;;4.00;99.90;;;;;;4993453;28;20423;-71
2023/04/14 04:39:44;;;;;;;1999.90;999.90;;;4.00;99.90;;;;;;4993317;28;20453;-72
2023/04/14 04:42:10;;;;;;;1999.90;999.90;;;4.00;99.90;;;;;;4993064;28;20412;-71
2023/04/14 04:44:35;;;;;;;1999.90;999.90;;;4.00;99.90;;;;;;4993143;28;20228;-71
2023/04/14 04:47:01;;;;;;;1999.90;999.90;;;4.00;99.90;;;;;;4993428;28;20174;-70
2023/04/14 04:49:27;;;;;;;1999.90;999.90;;;3.90;99.90;;;;;;4993261;28;20225;-71
2023/04/14 04:51:53;;;;;;;1999.90;999.90;;;3.90;99.90;;;;;;4992886;28;20516;-71
2023/04/14 04:54:19;;;;;;;1999.90;999.90;;;3.90;99.90;;;;;;4993104;28;20248;-72
2023/04/14 04:56:45;;;;;;;1999.90;999.90;;;3.90;99.90;;;;;;4993099;28;20401;-72
2023/04/14 04:59:10;;;;;;;1999.90;999.90;;;3.80;99.90;;;;;;4993064;28;20479;-71
2023/04/14 05:01:36;;;;;;;1999.90;999.90;;;3.80;99.90;;;;;;4992901;28;20409;-71
2023/04/14 05:04:01;;;;;;;1999.90;999.90;;;3.90;99.90;;;;;;4992423;28;20575;-70
2023/04/14 05:06:27;;;;;;;1999.90;999.90;;;3.90;99.90;;;;;;4993003;28;20196;-71
2023/04/14 05:08:54;;;;;;;1999.90;999.90;;;3.90;99.90;;;;;;4992942;28;20184;-71
2023/04/14 05:11:19;;;;;;;1999.90;999.90;;;4.00;99.90;;;;;;4992545;28;20443;-70
2023/04/14 05:13:45;;;;;;;1999.90;999.90;;;4.00;99.90;;;;;;4992759;28;20425;-72
2023/04/14 05:16:12;;;;;;;1999.90;999.90;;;4.00;99.90;;;;;;4992843;28;20258;-71
2023/04/14 05:18:38;;;;;;;1999.90;999.90;;;4.10;99.90;;;;;;4992786;28;20216;-71
2023/04/14 05:21:05;;;;;;;1999.90;999.90;;;4.00;99.90;;;;;;4992471;28;20416;-71
2023/04/14 05:23:32;;;;;;;1999.90;999.90;;;4.10;99.90;;;;;;4992580;28;20440;-72
2023/04/14 05:25:58;;;;;;;1999.90;999.90;;;4.10;99.90;;;;;;4992685;28;20396;-71
2023/04/14 05:28:23;;;;;;;1999.90;999.90;;;4.10;99.90;;;;;;4992727;28;20416;-72
2023/04/14 05:30:49;;;;;;;1999.90;999.90;;;4.20;99.90;;;;;;4992508;28;20417;-72
2023/04/14 05:33:15;;;;;;;1999.90;999.90;;;4.20;99.90;;;;;;4992396;28;20224;-71
2023/04/14 05:35:43;;;;;;;1999.90;999.90;;;4.30;99.90;;;;;;4992578;28;20548;-71
2023/04/14 05:38:09;;;;;;;1999.90;999.90;;;4.30;99.90;;;;;;4992552;28;20906;-72
2023/04/14 05:40:34;;;;;;;1999.90;999.90;;;4.40;99.90;;;;;;4992508;28;20459;-71
2023/04/14 05:43:00;;;;;;;1999.90;999.90;;;4.50;99.90;;;;;;4992222;28;20905;-70
2023/04/14 05:45:26;;;;;;;1999.90;999.90;;;4.60;99.90;;;;;;4992502;28;20192;-72
2023/04/14 05:47:51;;;;;;;1999.90;999.90;;;4.60;99.90;;;;;;4992483;28;20194;-72
2023/04/14 05:50:17;;;;;;;1999.90;999.90;;;4.70;99.90;;;;;;4992460;28;20252;-71
2023/04/14 05:52:43;;;;;;;1999.90;999.90;;;4.80;99.90;;;;;;4992003;28;20193;-71
2023/04/14 05:55:09;;;;;;;1999.90;999.90;;;4.90;99.90;;;;;;4992855;28;20200;-71
2023/04/14 05:57:34;;;;;;;1999.90;999.90;;;4.90;99.90;;;;;;4992461;28;20373;-72
2023/04/14 06:00:00;;;;;;;1999.90;999.90;;;4.80;99.90;;;;;;4992237;28;20488;-72
2023/04/14 06:02:25;;;;;;;1999.90;999.90;;;4.80;99.90;;;;;;4991995;28;20261;-72
2023/04/14 06:04:51;;;;;;;1999.90;999.90;;;5.00;99.90;;;;;;4992424;28;20196;-71
2023/04/14 06:07:16;;;;;;;1999.90;999.90;;;5.00;99.90;;;;;;4992287;28;20212;-72
2023/04/14 06:09:42;;;;;;;1999.90;999.90;;;5.10;99.90;;;;;;4992305;28;20216;-72
2023/04/14 06:12:08;;;;;;;1999.90;999.90;;;5.30;99.90;;;;;;4991992;28;20174;-71
2023/04/14 06:14:34;;;;;;;1999.90;999.90;;;5.30;99.90;;;;;;4992953;28;20259;-71
2023/04/14 06:16:59;;;;;;;1999.90;999.90;;;5.40;99.90;;;;;;4996694;28;20460;-71
2023/04/14 06:19:25;;;;;;;1999.90;999.90;;;5.50;99.90;;;;;;4996428;28;20198;-72
2023/04/14 06:21:51;;;;;;;1999.90;999.90;;;5.60;99.90;;;;;;4996239;28;20702;-71
2023/04/14 06:24:16;;;;;;;1999.90;999.90;;;5.70;99.90;;;;;;4996269;28;20189;-72
2023/04/14 06:26:42;;;;;;;1999.90;999.90;;;5.80;99.90;;;;;;4996210;28;20169;-71
2023/04/14 06:29:08;;;;;;;1999.90;999.90;;;5.90;99.90;;;;;;4996214;28;20655;-70
2023/04/14 06:31:34;;;;;;;1999.90;999.90;;;6.00;99.90;;;;;;4995781;28;20197;-72
2023/04/14 06:34:00;;;;;;;1999.90;999.90;;;6.10;99.90;;;;;;4996033;28;20201;-71
2023/04/14 06:36:25;;;;;;;1999.90;999.90;;;6.10;99.90;;;;;;4996036;28;20782;-72
2023/04/14 06:38:51;;;;;;;1999.90;999.90;;;6.20;99.90;;;;;;4998595;28;20189;-72
2023/04/14 06:41:17;;;;;;;1999.90;999.90;;;6.30;99.90;;;;;;5015931;28;20259;-72
2023/04/14 06:43:43;;;;;;;1999.90;999.90;;;6.40;99.90;;;;;;5015521;28;20435;-72
2023/04/14 06:46:08;;;;;;;1999.90;999.90;;;6.50;99.90;;;;;;5015685;28;20221;-72
2023/04/14 06:48:34;;;;;;;1999.90;999.90;;;6.60;99.90;;;;;;5015374;28;20177;-71
2023/04/14 06:51:00;;;;;;;1999.90;999.90;;;6.80;99.90;;;;;;5015068;28;20177;-72
2023/04/14 06:53:25;;;;;;;1999.90;999.90;;;6.80;99.90;;;;;;5015440;28;20199;-72
2023/04/14 06:55:57;;;;;;;1999.90;999.90;;;6.90;99.90;;;;;;5015601;28;20194;-72
2023/04/14 06:58:24;;;;;;;1999.90;999.90;;;6.90;99.90;;;;;;5015547;28;20189;-72
2023/04/14 07:00:57;;;;;;;1999.90;999.90;;;7.10;99.90;;;;;;5015212;28;20810;-72
2023/04/14 07:03:23;;;;;;;1999.90;999.90;;;7.20;99.90;;;;;;5015165;28;20823;-72
2023/04/14 07:05:49;;;;;;;1999.90;999.90;;;7.30;99.90;;;;;;5015427;28;20412;-72
2023/04/14 07:08:15;;;;;;;1999.90;999.90;;;7.40;99.90;;;;;;5015382;28;20411;-71
2023/04/14 07:10:41;;;;;;;1999.90;999.90;;;7.50;99.90;;;;;;5015200;28;20197;-72
2023/04/14 07:13:06;;;;;;;1999.90;999.90;;;7.70;99.90;;;;;;5015066;28;20442;-71
2023/04/14 07:15:32;;;;;;;1999.90;999.90;;;7.70;99.90;;;;;;5015046;28;20172;-72
2023/04/14 07:17:58;;;;;;;1999.90;999.90;;;7.80;99.90;;;;;;5015437;28;20561;-72
2023/04/14 07:20:24;;;;;;;1999.90;999.90;;;7.90;99.90;;;;;;5015018;28;20200;-71
2023/04/14 07:22:49;;;;;;;1999.90;999.90;;;7.90;99.90;;;;;;5013992;28;20205;-71
2023/04/14 07:25:15;;;;;;;1999.90;999.90;;;8.00;99.90;;;;;;5014422;28;20444;-71
2023/04/14 07:27:41;;;;;;;1999.90;999.90;;;8.10;99.90;;;;;;5013724;28;20182;-72
2023/04/14 07:30:07;;;;;;;1999.90;999.90;;;8.20;99.90;;;;;;5014261;28;20181;-73
2023/04/14 07:32:32;;;;;;;1999.90;999.90;;;8.30;99.90;;;;;;5014161;28;20168;-71
2023/04/14 07:34:58;;;;;;;1999.90;999.90;;;8.50;99.90;;;;;;5014430;28;20468;-71
2023/04/14 07:37:24;;;;;;;1999.90;999.90;;;8.50;99.90;;;;;;5014385;28;20174;-71
2023/04/14 07:39:50;;;;;;;1999.90;999.90;;;8.50;99.90;;;;;;5014359;28;20301;-71
2023/04/14 07:42:15;;;;;;;1999.90;999.90;;;8.60;99.90;;;;;;5013822;28;20845;-71
2023/04/14 07:44:41;;;;;;;1999.90;999.90;;;8.70;99.90;;;;;;5014016;28;20186;-71
2023/04/14 07:47:07;;;;;;;1999.90;999.90;;;8.90;99.90;;;;;;5014022;28;20167;-71
2023/04/14 07:49:32;;;;;;;1999.90;999.90;;;9.10;99.90;;;;;;5013921;28;20176;-71
2023/04/14 07:51:58;;;;;;;1999.90;999.90;;;9.20;99.90;;;;;;5013654;28;20177;-71
2023/04/14 07:54:24;;;;;;;1999.90;999.90;;;9.40;99.90;;;;;;5013817;28;20199;-71
2023/04/14 07:56:50;;;;;;;1999.90;999.90;;;9.50;99.90;;;;;;5013896;28;20565;-71
2023/04/14 07:59:16;;;;;;;1999.90;999.90;;;9.60;99.90;;;;;;5013677;28;20447;-71
2023/04/14 08:01:41;;;;;;;1999.90;999.90;;;9.80;99.90;;;;;;5013616;28;20426;-71
2023/04/14 08:04:07;;;;;;;1999.90;999.90;;;9.90;99.90;;;;;;5013604;28;20189;-71
2023/04/14 08:06:32;;;;;;;1999.90;999.90;;;10.10;99.90;;;;;;5015582;28;20606;-71
2023/04/14 08:08:58;;;;;;;1999.90;999.90;;;10.10;99.90;;;;;;5017084;28;20210;-71
2023/04/14 08:11:24;;;;;;;1999.90;999.90;;;10.20;99.90;;;;;;5016800;28;20704;-72
2023/04/14 08:13:51;;;;;;;1999.90;999.90;;;10.30;99.90;;;;;;5017326;28;20200;-72
2023/04/14 08:16:17;;;;;;;1999.90;999.90;;;10.60;99.90;;;;;;5016979;28;20191;-72
2023/04/14 08:18:44;;;;;;;1999.90;999.90;;;10.50;99.90;;;;;;5017141;28;20496;-71
2023/04/14 08:21:10;;;;;;;1999.90;999.90;;;10.60;99.90;;;;;;5017810;28;20426;-72
2023/04/14 08:23:36;;;;;;;1999.90;999.90;;;10.70;99.90;;;;;;5018026;28;20480;-72
2023/04/14 08:26:02;;;;;;;1999.90;999.90;;;11.00;99.90;;;;;;5017756;28;20792;-72
2023/04/14 08:28:28;;;;;;;1999.90;999.90;;;11.10;99.90;;;;;;5017781;28;20193;-71
2023/04/14 08:30:54;;;;;;;1999.90;999.90;;;11.10;99.90;;;;;;5017714;28;20881;-72
2023/04/14 08:33:20;;;;;;;1999.90;999.90;;;11.20;99.90;;;;;;5015969;28;20674;-72
2023/04/14 08:35:45;;;;;;;1999.90;999.90;;;11.20;99.90;;;;;;5015432;28;20174;-71
2023/04/14 08:38:11;;;;;;;1999.90;999.90;;;11.40;99.90;;;;;;5001778;28;20488;-69
2023/04/14 08:40:38;;;;;;;1999.90;999.90;;;11.50;99.90;;;;;;4987931;28;20769;-70
2023/04/14 08:43:04;;;;;;;1999.90;999.90;;;11.60;99.90;;;;;;4988277;28;20194;-71
2023/04/14 08:45:34;;;;;;;1999.90;999.90;;;11.80;99.90;;;;;;4989564;28;20473;-71
2023/04/14 08:48:04;;;;;;;1999.90;999.90;;;11.80;99.90;;;;;;4988864;28;20418;-71
2023/04/14 08:50:39;;;;;;;1999.90;999.90;;;11.90;99.90;;;;;;4988691;28;20418;-71
2023/04/14 08:53:08;;;;;;;1999.90;999.90;;;12.00;99.90;;;;;;4988256;28;20433;-70
2023/04/14 08:55:38;;;;;;;1999.90;999.90;;;12.10;99.90;;;;;;4988724;28;20425;-69
2023/04/14 08:58:06;;;;;;;1999.90;999.90;;;12.10;99.90;;;;;;4989487;28;20433;-71
2023/04/14 09:00:32;;;;;;;1999.90;999.90;;;12.20;99.90;;;;;;4988860;28;20520;-71
2023/04/14 09:02:58;;;;;;;1999.90;999.90;;;12.40;99.90;;;;;;4988714;28;21011;-71
2023/04/14 09:05:24;;;;;;;1999.90;999.90;;;12.50;99.90;;;;;;4990246;28;20183;-72
2023/04/14 09:07:51;;;;;;;1999.90;999.90;;;12.50;99.90;;;;;;4988909;28;20902;-71
2023/04/14 09:10:17;;;;;;;1999.90;999.90;;;12.30;99.90;;;;;;4988212;28;20763;-71
2023/04/14 09:12:43;;;;;;;1999.90;999.90;;;12.40;99.90;;;;;;4988633;28;20435;-71
2023/04/14 09:15:11;;;;;;;1999.90;999.90;;;12.30;99.90;;;;;;4988401;28;20418;-70
2023/04/14 09:17:36;;;;;;;1999.90;999.90;;;12.30;99.90;;;;;;4988238;28;20430;-72
2023/04/14 09:20:02;;;;;;;1999.90;999.90;;;12.30;99.90;;;;;;4988950;28;20553;-70
2023/04/14 09:22:28;;;;;;;1999.90;999.90;;;12.50;99.90;;;;;;4988773;28;20190;-71
2023/04/14 09:24:56;;;;;;;1999.90;999.90;;;12.50;99.90;;;;;;4988255;28;20529;-71
2023/04/14 09:27:21;;;;;;;1999.90;999.90;;;12.60;99.90;;;;;;4987376;28;20883;-71
2023/04/14 09:29:49;;;;;;;1999.90;999.90;;;12.80;99.90;;;;;;4988405;28;20463;-71
2023/04/14 09:32:14;;;;;;;1999.90;999.90;;;12.80;99.90;;;;;;4986767;28;20194;-71
2023/04/14 09:34:53;;;;;;;1999.90;999.90;;;12.90;99.90;;;;;;4989714;28;20436;-69
2023/04/14 09:37:20;;;;;;;1999.90;999.90;;;13.00;99.90;;;;;;4988901;28;20190;-72
2023/04/14 09:39:50;;;;;;;1999.90;999.90;;;13.00;99.90;;;;;;4987746;28;20464;-71
2023/04/14 09:42:17;;;;;;;1999.90;999.90;;;13.10;99.90;;;;;;4987255;28;20505;-72
2023/04/14 09:44:55;;;;;;;1999.90;999.90;;;13.30;99.90;;;;;;4988107;28;21023;-72
2023/04/14 09:47:23;;;;;;;1999.90;999.90;;;13.30;99.90;;;;;;4988144;28;20430;-68
2023/04/14 09:49:59;;;;;;;1999.90;999.90;;;13.50;99.90;;;;;;4988748;28;20547;-72
2023/04/14 09:52:39;;;;;;;1999.90;999.90;;;13.70;99.90;;;;;;4991881;28;20426;-72
2023/04/14 09:55:08;;;;;;;1999.90;999.90;;;13.90;99.90;;;;;;4992652;28;20427;-70
2023/04/14 09:57:36;;;;;;;1999.90;999.90;;;14.10;99.90;;;;;;4992090;28;20425;-69
2023/04/14 10:00:04;;;;;;;1999.90;999.90;;;14.20;99.90;;;;;;4991684;28;20866;-71
2023/04/14 10:02:45;;;;;;;1999.90;999.90;;;14.20;99.90;;;;;;4992362;28;20414;-71
2023/04/14 10:05:11;;;;;;;1999.90;999.90;;;14.10;99.90;;;;;;4991922;28;20557;-71
2023/04/14 10:07:40;;;;;;;1999.90;999.90;;;14.10;99.90;;;;;;4990975;28;20500;-71
2023/04/14 10:10:09;;;;;;;1999.90;999.90;;;14.20;99.90;;;;;;4991539;28;20182;-70
2023/04/14 10:12:34;;;;;;;1999.90;999.90;;;14.30;99.90;;;;;;4990553;28;20419;-70
2023/04/14 10:15:00;;;;;;;1999.90;999.90;;;14.20;99.90;;;;;;4992275;28;20980;-70
2023/04/14 10:17:26;;;;;;;1999.90;999.90;;;14.20;99.90;;;;;;4991559;28;20191;-69
2023/04/14 10:19:52;;;;;;;1999.90;999.90;;;14.40;99.90;;;;;;4991755;28;20204;-70
2023/04/14 10:22:19;;;;;;;1999.90;999.90;;;14.60;99.90;;;;;;4992127;28;20241;-70
2023/04/14 10:24:46;;;;;;;1999.90;999.90;;;14.60;99.90;;;;;;4991202;28;20503;-70
2023/04/14 10:27:12;;;;;;;1999.90;999.90;;;14.60;99.90;;;;;;4991129;28;20493;-69
2023/04/14 10:29:39;;;;;;;1999.90;999.90;;;14.60;99.90;;;;;;4991855;28;21354;-70
2023/04/14 10:32:08;;;;;;;1999.90;999.90;;;14.70;99.90;;;;;;4990575;28;20479;-70
2023/04/14 10:34:36;;;;;;;1999.90;999.90;;;14.80;99.90;;;;;;4990557;28;20517;-71
2023/04/14 10:37:28;;;;;;;1999.90;999.90;;;14.90;99.30;;;;;;4991957;28;20422;-71
2023/04/14 10:39:59;;;;;;;1999.90;999.90;;;15.10;99.90;;;;;;4989695;28;20495;-69
2023/04/14 10:42:25;;;;;;;1999.90;999.90;;;15.10;99.90;;;;;;4989882;28;20463;-72
2023/04/14 10:45:05;;;;;;;1999.90;999.90;;;15.20;99.90;;;;;;4991687;28;21355;-71
2023/04/14 10:47:32;;;;;;;1999.90;999.90;;;15.50;99.90;;;;;;4991490;28;20419;-69
2023/04/14 10:49:57;;;;;;;1999.90;999.90;;;15.80;99.90;;;;;;4990378;28;20502;-70
2023/04/14 10:52:24;;;;;;;1999.90;999.90;;;15.90;98.40;;;;;;4990240;28;21000;-71
2023/04/14 10:55:06;;;;;;;1999.90;999.90;;;15.90;97.90;;;;;;4990916;28;20174;-70
2023/04/14 10:57:42;;;;;;;1999.90;999.90;;;15.90;92.90;;;;;;4990695;28;20500;-75
2023/04/14 11:00:23;;;;;;;1999.90;999.90;;;15.90;95.40;;;;;;4991052;28;20463;-71
2023/04/14 11:03:01;;;;;;;1999.90;999.90;;;16.00;94.80;;;;;;4989125;28;20504;-71
2023/04/14 11:05:27;;;;;;;1999.90;999.90;;;15.90;91.80;;;;;;4990086;28;20772;-71
2023/04/14 11:07:56;;;;;;;1999.90;999.90;;;16.00;96.00;;;;;;4991151;28;20417;-70
2023/04/14 11:10:22;;;;;;;1999.90;999.90;;;16.10;93.80;;;;;;4990048;28;20185;-71
2023/04/14 11:13:01;;;;;;;1999.90;999.90;;;16.30;95.90;;;;;;4988727;28;21276;-70
2023/04/14 11:15:43;;;;;;;1999.90;999.90;;;16.50;92.60;;;;;;4990044;28;20414;-69
2023/04/14 11:18:26;;;;;;;1999.90;999.90;;;16.90;92.30;;;;;;4970661;28;20432;-69
2023/04/14 11:20:52;;;;;;;1999.90;999.90;;;17.10;89.10;;;;;;4985499;28;20453;-70
2023/04/14 11:23:26;;;;;;;1999.90;999.90;;;17.20;86.70;;;;;;4989561;28;20856;-72
2023/04/14 11:25:52;;;;;;;1999.90;999.90;;;17.40;82.90;;;;;;4989568;28;20416;-72
2023/04/14 11:28:28;;;;;;;1999.90;999.90;;;17.60;88.10;;;;;;4990653;28;20423;-69
2023/04/14 11:30:57;;;;;;;1999.90;999.90;;;17.70;63.80;;;;;;4990524;28;20193;-71
2023/04/14 11:33:25;;;;;;;1999.90;999.90;;;17.70;72.10;;;;;;4989284;28;20472;-70
2023/04/14 11:35:51;;;;;;;1999.90;999.90;;;17.60;63.10;;;;;;4989933;28;20843;-70
2023/04/14 11:38:17;;;;;;;1999.90;999.90;;;17.60;53.90;;;;;;4990684;28;20777;-69
2023/04/14 11:40:48;;;;;;;1999.90;999.90;;;17.70;70.20;;;;;;4988192;28;20471;-70
2023/04/14 11:43:14;;;;;;;1999.90;999.90;;;17.80;56.60;;;;;;4985352;28;20276;-70
2023/04/14 11:45:42;;;;;;;1999.90;999.90;;;17.60;52.10;;;;;;4990382;28;20554;-71
2023/04/14 11:48:09;;;;;;;1999.90;999.90;;;17.80;63.00;;;;;;4989714;28;20874;-70
2023/04/14 11:50:38;;;;;;;1999.90;999.90;;;18.20;62.20;;;;;;4989237;28;20434;-70
2023/04/14 11:53:07;;;;;;;1999.90;999.90;;;18.90;59.70;;;;;;4989540;28;20438;-71
2023/04/14 11:55:33;;;;;;;1999.90;999.90;;;19.60;51.40;;;;;;4989766;28;20431;-71
2023/04/14 11:58:00;;;;;;;1999.90;999.90;;;20.20;40.00;;;;;;4989523;28;20797;-71
2023/04/14 12:00:28;;;;;;;1999.90;999.90;;;21.00;40.30;;;;;;4989427;28;20259;-71
2023/04/14 12:02:55;;;;;;;1999.90;999.90;;;21.80;36.40;;;;;;4989724;28;21282;-72
2023/04/14 12:05:28;;;;;;;1999.90;999.90;;;22.70;27.70;;;;;;4989543;28;20410;-70
2023/04/14 12:07:58;;;;;;;1999.90;999.90;;;23.00;17.40;;;;;;4988873;28;20390;-70
2023/04/14 12:10:25;;;;;;;1999.90;999.90;;;23.20;12.00;;;;;;4988397;28;20611;-69